sensor_id;sensor_type;location;lat;lon;timestamp;temperature;humidity
70271;SHT31;57680;54.292;18.598;2024-03-08T00:02:11;-1.09;98.45
70271;SHT31;57680;54.292;18.598;2024-03-08T00:04:37;-1.17;98.11
70271;SHT31;57680;54.292;18.598;2024-03-08T00:07:02;-1.30;97.82
70271;SHT31;57680;54.292;18.598;2024-03-08T00:09:27;-1.40;97.71
70271;SHT31;57680;54.292;18.598;2024-03-08T00:11:53;-1.47;98.01
70271;SHT31;57680;54.292;18.598;2024-03-08T00:14:18;-1.36;99.09
70271;SHT31;57680;54.292;18.598;2024-03-08T00:16:43;-1.29;99.00
70271;SHT31;57680;54.292;18.598;2024-03-08T00:19:09;-1.32;98.46
70271;SHT31;57680;54.292;18.598;2024-03-08T00:21:34;-1.32;98.76
70271;SHT31;57680;54.292;18.598;2024-03-08T00:23:59;-1.35;98.53
70271;SHT31;57680;54.292;18.598;2024-03-08T00:26:24;-1.32;98.74
70271;SHT31;57680;54.292;18.598;2024-03-08T00:28:50;-1.25;99.10
70271;SHT31;57680;54.292;18.598;2024-03-08T00:31:15;-1.19;99.00
70271;SHT31;57680;54.292;18.598;2024-03-08T00:33:40;-1.11;98.97
70271;SHT31;57680;54.292;18.598;2024-03-08T00:36:06;-1.16;98.53
70271;SHT31;57680;54.292;18.598;2024-03-08T00:38:31;-1.23;98.10
70271;SHT31;57680;54.292;18.598;2024-03-08T00:40:56;-1.29;98.35
70271;SHT31;57680;54.292;18.598;2024-03-08T00:43:21;-1.29;98.49
70271;SHT31;57680;54.292;18.598;2024-03-08T00:45:47;-1.32;98.40
70271;SHT31;57680;54.292;18.598;2024-03-08T00:48:12;-1.28;98.54
70271;SHT31;57680;54.292;18.598;2024-03-08T00:50:37;-1.25;98.74
70271;SHT31;57680;54.292;18.598;2024-03-08T00:53:03;-1.26;98.52
70271;SHT31;57680;54.292;18.598;2024-03-08T00:55:28;-1.39;97.56
70271;SHT31;57680;54.292;18.598;2024-03-08T00:57:53;-1.57;96.66
70271;SHT31;57680;54.292;18.598;2024-03-08T01:00:20;-1.50;98.57
70271;SHT31;57680;54.292;18.598;2024-03-08T01:02:45;-1.51;98.24
70271;SHT31;57680;54.292;18.598;2024-03-08T01:05:10;-1.63;97.91
70271;SHT31;57680;54.292;18.598;2024-03-08T01:07:36;-1.63;98.28
70271;SHT31;57680;54.292;18.598;2024-03-08T01:10:04;-1.68;98.18
70271;SHT31;57680;54.292;18.598;2024-03-08T01:12:29;-1.78;98.16
70271;SHT31;57680;54.292;18.598;2024-03-08T01:14:55;-1.87;98.40
70271;SHT31;57680;54.292;18.598;2024-03-08T01:17:21;-1.87;98.65
70271;SHT31;57680;54.292;18.598;2024-03-08T01:19:46;-1.91;98.81
70271;SHT31;57680;54.292;18.598;2024-03-08T01:22:11;-1.82;99.41
70271;SHT31;57680;54.292;18.598;2024-03-08T01:24:36;-1.74;99.78
70271;SHT31;57680;54.292;18.598;2024-03-08T01:27:02;-1.63;99.99
70271;SHT31;57680;54.292;18.598;2024-03-08T01:29:28;-1.60;99.92
70271;SHT31;57680;54.292;18.598;2024-03-08T01:31:53;-1.53;99.94
70271;SHT31;57680;54.292;18.598;2024-03-08T01:34:18;-1.51;99.56
70271;SHT31;57680;54.292;18.598;2024-03-08T01:36:44;-1.51;99.44
70271;SHT31;57680;54.292;18.598;2024-03-08T01:39:09;-1.57;98.86
70271;SHT31;57680;54.292;18.598;2024-03-08T01:41:34;-1.63;99.15
70271;SHT31;57680;54.292;18.598;2024-03-08T01:43:59;-1.61;99.32
70271;SHT31;57680;54.292;18.598;2024-03-08T01:46:25;-1.49;99.99
70271;SHT31;57680;54.292;18.598;2024-03-08T01:48:50;-1.57;99.60
70271;SHT31;57680;54.292;18.598;2024-03-08T01:51:16;-1.61;99.23
70271;SHT31;57680;54.292;18.598;2024-03-08T01:53:42;-1.70;99.13
70271;SHT31;57680;54.292;18.598;2024-03-08T01:56:09;-1.84;98.77
70271;SHT31;57680;54.292;18.598;2024-03-08T01:58:34;-1.82;99.01
70271;SHT31;57680;54.292;18.598;2024-03-08T02:01:00;-1.92;98.84
70271;SHT31;57680;54.292;18.598;2024-03-08T02:03:26;-1.97;99.09
70271;SHT31;57680;54.292;18.598;2024-03-08T02:05:51;-1.97;99.28
70271;SHT31;57680;54.292;18.598;2024-03-08T02:08:18;-1.99;99.37
70271;SHT31;57680;54.292;18.598;2024-03-08T02:10:44;-1.94;99.69
70271;SHT31;57680;54.292;18.598;2024-03-08T02:13:10;-1.92;99.79
70271;SHT31;57680;54.292;18.598;2024-03-08T02:15:58;-1.84;99.85
70271;SHT31;57680;54.292;18.598;2024-03-08T02:18:24;-1.82;99.85
70271;SHT31;57680;54.292;18.598;2024-03-08T02:20:51;-1.82;99.69
70271;SHT31;57680;54.292;18.598;2024-03-08T02:23:16;-1.87;99.32
70271;SHT31;57680;54.292;18.598;2024-03-08T02:25:42;-1.91;99.06
70271;SHT31;57680;54.292;18.598;2024-03-08T02:28:09;-1.95;99.13
70271;SHT31;57680;54.292;18.598;2024-03-08T02:30:35;-1.94;99.55
70271;SHT31;57680;54.292;18.598;2024-03-08T02:33:00;-1.87;99.91
70271;SHT31;57680;54.292;18.598;2024-03-08T02:35:26;-1.82;99.99
70271;SHT31;57680;54.292;18.598;2024-03-08T02:37:51;-1.80;99.74
70271;SHT31;57680;54.292;18.598;2024-03-08T02:40:16;-1.85;99.43
70271;SHT31;57680;54.292;18.598;2024-03-08T02:42:41;-1.94;99.19
70271;SHT31;57680;54.292;18.598;2024-03-08T02:45:07;-1.95;98.85
70271;SHT31;57680;54.292;18.598;2024-03-08T02:47:33;-2.01;98.61
70271;SHT31;57680;54.292;18.598;2024-03-08T02:49:58;-2.13;98.73
70271;SHT31;57680;54.292;18.598;2024-03-08T02:52:23;-2.09;99.37
70271;SHT31;57680;54.292;18.598;2024-03-08T02:54:48;-2.01;99.99
70271;SHT31;57680;54.292;18.598;2024-03-08T02:57:14;-1.91;99.99
70271;SHT31;57680;54.292;18.598;2024-03-08T02:59:39;-1.82;99.99
70271;SHT31;57680;54.292;18.598;2024-03-08T03:02:04;-1.78;99.99
70271;SHT31;57680;54.292;18.598;2024-03-08T03:04:29;-1.75;99.99
70271;SHT31;57680;54.292;18.598;2024-03-08T03:06:55;-1.77;99.74
70271;SHT31;57680;54.292;18.598;2024-03-08T03:09:20;-1.77;99.79
70271;SHT31;57680;54.292;18.598;2024-03-08T03:11:45;-1.70;99.99
70271;SHT31;57680;54.292;18.598;2024-03-08T03:14:11;-1.68;99.80
70271;SHT31;57680;54.292;18.598;2024-03-08T03:16:36;-1.74;99.59
70271;SHT31;57680;54.292;18.598;2024-03-08T03:19:01;-1.74;99.50
70271;SHT31;57680;54.292;18.598;2024-03-08T03:21:28;-1.81;99.37
70271;SHT31;57680;54.292;18.598;2024-03-08T03:23:53;-1.84;99.53
70271;SHT31;57680;54.292;18.598;2024-03-08T03:26:19;-1.84;99.46
70271;SHT31;57680;54.292;18.598;2024-03-08T03:28:44;-1.94;99.23
70271;SHT31;57680;54.292;18.598;2024-03-08T03:31:09;-2.02;99.14
70271;SHT31;57680;54.292;18.598;2024-03-08T03:33:34;-2.11;98.88
70271;SHT31;57680;54.292;18.598;2024-03-08T03:36:00;-2.21;98.88
70271;SHT31;57680;54.292;18.598;2024-03-08T03:38:25;-2.25;99.02
70271;SHT31;57680;54.292;18.598;2024-03-08T03:40:50;-2.25;99.22
70271;SHT31;57680;54.292;18.598;2024-03-08T03:43:15;-2.31;99.11
70271;SHT31;57680;54.292;18.598;2024-03-08T03:45:41;-2.31;99.12
70271;SHT31;57680;54.292;18.598;2024-03-08T03:48:07;-2.38;99.01
70271;SHT31;57680;54.292;18.598;2024-03-08T03:50:32;-2.39;99.05
70271;SHT31;57680;54.292;18.598;2024-03-08T03:52:58;-2.49;98.87
70271;SHT31;57680;54.292;18.598;2024-03-08T03:55:23;-2.56;98.91
70271;SHT31;57680;54.292;18.598;2024-03-08T03:57:48;-2.54;99.38
70271;SHT31;57680;54.292;18.598;2024-03-08T04:00:14;-2.54;99.51
70271;SHT31;57680;54.292;18.598;2024-03-08T04:02:39;-2.57;99.24
70271;SHT31;57680;54.292;18.598;2024-03-08T04:05:06;-2.66;99.02
70271;SHT31;57680;54.292;18.598;2024-03-08T04:07:32;-2.74;99.03
70271;SHT31;57680;54.292;18.598;2024-03-08T04:09:57;-2.73;99.47
70271;SHT31;57680;54.292;18.598;2024-03-08T04:12:22;-2.76;99.40
70271;SHT31;57680;54.292;18.598;2024-03-08T04:14:48;-2.80;99.60
70271;SHT31;57680;54.292;18.598;2024-03-08T04:17:13;-2.81;99.72
70271;SHT31;57680;54.292;18.598;2024-03-08T04:19:39;-2.81;99.69
70271;SHT31;57680;54.292;18.598;2024-03-08T04:22:05;-2.83;99.85
70271;SHT31;57680;54.292;18.598;2024-03-08T04:24:30;-2.83;99.72
70271;SHT31;57680;54.292;18.598;2024-03-08T04:26:56;-2.85;99.75
70271;SHT31;57680;54.292;18.598;2024-03-08T04:29:21;-2.91;99.51
70271;SHT31;57680;54.292;18.598;2024-03-08T04:31:46;-2.91;99.63
70271;SHT31;57680;54.292;18.598;2024-03-08T04:34:12;-2.94;99.23
70271;SHT31;57680;54.292;18.598;2024-03-08T04:36:37;-2.98;98.97
70271;SHT31;57680;54.292;18.598;2024-03-08T04:39:02;-3.03;98.91
70271;SHT31;57680;54.292;18.598;2024-03-08T04:41:28;-3.11;98.84
70271;SHT31;57680;54.292;18.598;2024-03-08T04:43:53;-3.11;98.67
70271;SHT31;57680;54.292;18.598;2024-03-08T04:46:19;-3.27;98.47
70271;SHT31;57680;54.292;18.598;2024-03-08T04:48:44;-3.35;98.70
70271;SHT31;57680;54.292;18.598;2024-03-08T04:51:09;-3.41;98.59
70271;SHT31;57680;54.292;18.598;2024-03-08T04:53:35;-3.41;98.94
70271;SHT31;57680;54.292;18.598;2024-03-08T04:56:00;-3.42;99.20
70271;SHT31;57680;54.292;18.598;2024-03-08T04:58:25;-3.46;99.07
70271;SHT31;57680;54.292;18.598;2024-03-08T05:00:50;-3.48;99.29
70271;SHT31;57680;54.292;18.598;2024-03-08T05:03:16;-3.42;99.85
70271;SHT31;57680;54.292;18.598;2024-03-08T05:05:41;-3.35;99.99
70271;SHT31;57680;54.292;18.598;2024-03-08T05:08:06;-3.28;99.99
70271;SHT31;57680;54.292;18.598;2024-03-08T05:10:32;-3.24;99.99
70271;SHT31;57680;54.292;18.598;2024-03-08T05:12:57;-3.21;99.99
70271;SHT31;57680;54.292;18.598;2024-03-08T05:15:22;-3.22;99.87
70271;SHT31;57680;54.292;18.598;2024-03-08T05:17:47;-3.19;99.82
70271;SHT31;57680;54.292;18.598;2024-03-08T05:20:13;-3.19;99.86
70271;SHT31;57680;54.292;18.598;2024-03-08T05:22:38;-3.16;99.95
70271;SHT31;57680;54.292;18.598;2024-03-08T05:25:03;-3.12;99.85
70271;SHT31;57680;54.292;18.598;2024-03-08T05:27:29;-3.12;99.77
70271;SHT31;57680;54.292;18.598;2024-03-08T05:29:54;-3.04;99.99
70271;SHT31;57680;54.292;18.598;2024-03-08T05:32:19;-2.84;99.99
70271;SHT31;57680;54.292;18.598;2024-03-08T05:34:44;-2.63;99.88
70271;SHT31;57680;54.292;18.598;2024-03-08T05:37:10;-2.53;99.35
70271;SHT31;57680;54.292;18.598;2024-03-08T05:39:35;-2.45;99.21
70271;SHT31;57680;54.292;18.598;2024-03-08T05:42:00;-2.38;99.04
70271;SHT31;57680;54.292;18.598;2024-03-08T05:44:26;-2.35;98.94
70271;SHT31;57680;54.292;18.598;2024-03-08T05:46:51;-2.39;99.12
70271;SHT31;57680;54.292;18.598;2024-03-08T05:49:16;-2.46;99.38
70271;SHT31;57680;54.292;18.598;2024-03-08T05:51:42;-2.48;99.52
70271;SHT31;57680;54.292;18.598;2024-03-08T05:54:09;-2.48;99.93
70271;SHT31;57680;54.292;18.598;2024-03-08T05:56:35;-2.42;99.99
70271;SHT31;57680;54.292;18.598;2024-03-08T05:59:00;-2.33;99.99
70271;SHT31;57680;54.292;18.598;2024-03-08T06:01:26;-2.05;99.99
70271;SHT31;57680;54.292;18.598;2024-03-08T06:03:52;-2.08;99.42
70271;SHT31;57680;54.292;18.598;2024-03-08T06:06:18;-1.99;99.31
70271;SHT31;57680;54.292;18.598;2024-03-08T06:08:43;-1.97;99.07
70271;SHT31;57680;54.292;18.598;2024-03-08T06:11:09;-1.81;98.95
70271;SHT31;57680;54.292;18.598;2024-03-08T06:13:34;-1.73;98.00
70271;SHT31;57680;54.292;18.598;2024-03-08T06:16:01;-1.75;97.63
70271;SHT31;57680;54.292;18.598;2024-03-08T06:18:26;-1.71;97.69
70271;SHT31;57680;54.292;18.598;2024-03-08T06:20:52;-1.61;97.98
70271;SHT31;57680;54.292;18.598;2024-03-08T06:23:17;-1.44;98.24
70271;SHT31;57680;54.292;18.598;2024-03-08T06:25:43;-1.13;99.74
70271;SHT31;57680;54.292;18.598;2024-03-08T06:28:08;-1.12;98.07
70271;SHT31;57680;54.292;18.598;2024-03-08T06:30:34;-1.05;97.49
70271;SHT31;57680;54.292;18.598;2024-03-08T06:32:59;-0.95;96.78
70271;SHT31;57680;54.292;18.598;2024-03-08T06:35:24;-0.93;96.25
70271;SHT31;57680;54.292;18.598;2024-03-08T06:37:50;-0.93;96.54
70271;SHT31;57680;54.292;18.598;2024-03-08T06:40:15;-0.88;95.74
70271;SHT31;57680;54.292;18.598;2024-03-08T06:42:41;-0.89;96.09
70271;SHT31;57680;54.292;18.598;2024-03-08T06:45:06;-0.85;96.33
70271;SHT31;57680;54.292;18.598;2024-03-08T06:47:32;-0.68;96.29
70271;SHT31;57680;54.292;18.598;2024-03-08T06:49:57;-0.26;95.87
70271;SHT31;57680;54.292;18.598;2024-03-08T06:52:22;0.14;95.12
70271;SHT31;57680;54.292;18.598;2024-03-08T06:54:48;0.10;94.16
70271;SHT31;57680;54.292;18.598;2024-03-08T06:57:13;-0.05;93.89
70271;SHT31;57680;54.292;18.598;2024-03-08T06:59:38;0.21;94.44
70271;SHT31;57680;54.292;18.598;2024-03-08T07:02:04;0.63;93.65
70271;SHT31;57680;54.292;18.598;2024-03-08T07:04:29;0.63;92.35
70271;SHT31;57680;54.292;18.598;2024-03-08T07:06:58;0.75;91.88
70271;SHT31;57680;54.292;18.598;2024-03-08T07:09:24;0.80;92.08
70271;SHT31;57680;54.292;18.598;2024-03-08T07:11:49;0.89;91.85
70271;SHT31;57680;54.292;18.598;2024-03-08T07:14:14;0.94;91.52
70271;SHT31;57680;54.292;18.598;2024-03-08T07:16:39;1.07;91.34
70271;SHT31;57680;54.292;18.598;2024-03-08T07:19:05;1.17;91.26
70271;SHT31;57680;54.292;18.598;2024-03-08T07:21:31;1.23;90.05
70271;SHT31;57680;54.292;18.598;2024-03-08T07:23:56;1.31;90.65
70271;SHT31;57680;54.292;18.598;2024-03-08T07:26:21;1.37;90.74
70271;SHT31;57680;54.292;18.598;2024-03-08T07:28:46;1.45;90.31
70271;SHT31;57680;54.292;18.598;2024-03-08T07:31:12;1.45;89.69
70271;SHT31;57680;54.292;18.598;2024-03-08T07:33:37;1.51;89.64
70271;SHT31;57680;54.292;18.598;2024-03-08T07:36:03;1.50;89.67
70271;SHT31;57680;54.292;18.598;2024-03-08T07:38:28;1.62;89.47
70271;SHT31;57680;54.292;18.598;2024-03-08T07:40:53;1.73;89.57
70271;SHT31;57680;54.292;18.598;2024-03-08T07:43:18;1.81;88.82
70271;SHT31;57680;54.292;18.598;2024-03-08T07:45:44;1.87;89.02
70271;SHT31;57680;54.292;18.598;2024-03-08T07:48:09;1.95;87.99
70271;SHT31;57680;54.292;18.598;2024-03-08T07:50:36;1.96;87.56
70271;SHT31;57680;54.292;18.598;2024-03-08T07:53:02;2.07;87.70
70271;SHT31;57680;54.292;18.598;2024-03-08T07:55:27;2.17;87.74
70271;SHT31;57680;54.292;18.598;2024-03-08T07:57:52;2.31;88.04
70271;SHT31;57680;54.292;18.598;2024-03-08T08:00:18;2.40;87.09
70271;SHT31;57680;54.292;18.598;2024-03-08T08:02:46;2.57;87.22
70271;SHT31;57680;54.292;18.598;2024-03-08T08:05:12;2.70;86.68
70271;SHT31;57680;54.292;18.598;2024-03-08T08:07:37;2.80;85.58
70271;SHT31;57680;54.292;18.598;2024-03-08T08:10:03;2.96;85.10
70271;SHT31;57680;54.292;18.598;2024-03-08T08:12:28;3.27;87.36
70271;SHT31;57680;54.292;18.598;2024-03-08T08:14:53;3.59;86.43
70271;SHT31;57680;54.292;18.598;2024-03-08T08:17:19;3.87;85.51
70271;SHT31;57680;54.292;18.598;2024-03-08T08:19:44;4.16;84.37
70271;SHT31;57680;54.292;18.598;2024-03-08T08:22:09;4.52;84.44
70271;SHT31;57680;54.292;18.598;2024-03-08T08:24:35;4.59;83.29
70271;SHT31;57680;54.292;18.598;2024-03-08T08:27:00;4.50;81.77
70271;SHT31;57680;54.292;18.598;2024-03-08T08:29:25;4.62;82.64
70271;SHT31;57680;54.292;18.598;2024-03-08T08:31:50;4.62;82.88
70271;SHT31;57680;54.292;18.598;2024-03-08T08:34:16;4.70;82.42
70271;SHT31;57680;54.292;18.598;2024-03-08T08:36:42;4.77;82.63
70271;SHT31;57680;54.292;18.598;2024-03-08T08:39:07;4.87;82.38
70271;SHT31;57680;54.292;18.598;2024-03-08T08:41:32;4.85;81.74
70271;SHT31;57680;54.292;18.598;2024-03-08T08:43:57;4.94;81.81
70271;SHT31;57680;54.292;18.598;2024-03-08T08:46:23;4.90;81.17
70271;SHT31;57680;54.292;18.598;2024-03-08T08:48:48;4.95;82.01
70271;SHT31;57680;54.292;18.598;2024-03-08T08:51:14;5.05;82.71
70271;SHT31;57680;54.292;18.598;2024-03-08T08:53:39;5.31;82.35
70271;SHT31;57680;54.292;18.598;2024-03-08T08:56:06;5.46;81.11
70271;SHT31;57680;54.292;18.598;2024-03-08T08:58:31;5.39;79.75
70271;SHT31;57680;54.292;18.598;2024-03-08T09:00:56;5.36;79.63
70271;SHT31;57680;54.292;18.598;2024-03-08T09:03:22;5.72;82.51
70271;SHT31;57680;54.292;18.598;2024-03-08T09:05:47;5.76;78.82
70271;SHT31;57680;54.292;18.598;2024-03-08T09:08:12;5.79;78.40
70271;SHT31;57680;54.292;18.598;2024-03-08T09:10:37;5.76;78.04
70271;SHT31;57680;54.292;18.598;2024-03-08T09:13:03;5.83;80.35
70271;SHT31;57680;54.292;18.598;2024-03-08T09:15:28;5.69;78.60
70271;SHT31;57680;54.292;18.598;2024-03-08T09:17:53;5.93;80.66
70271;SHT31;57680;54.292;18.598;2024-03-08T09:20:19;5.87;78.50
70271;SHT31;57680;54.292;18.598;2024-03-08T09:22:44;5.90;79.41
70271;SHT31;57680;54.292;18.598;2024-03-08T09:25:09;5.89;78.48
70271;SHT31;57680;54.292;18.598;2024-03-08T09:27:35;6.06;80.02
70271;SHT31;57680;54.292;18.598;2024-03-08T09:30:00;6.18;77.82
70271;SHT31;57680;54.292;18.598;2024-03-08T09:32:25;6.21;79.75
70271;SHT31;57680;54.292;18.598;2024-03-08T09:34:50;6.38;77.28
70271;SHT31;57680;54.292;18.598;2024-03-08T09:37:16;6.48;77.77
70271;SHT31;57680;54.292;18.598;2024-03-08T09:39:41;6.71;77.80
70271;SHT31;57680;54.292;18.598;2024-03-08T09:42:06;6.55;75.24
70271;SHT31;57680;54.292;18.598;2024-03-08T09:44:32;6.58;77.24
70271;SHT31;57680;54.292;18.598;2024-03-08T09:47:00;6.62;76.30
70271;SHT31;57680;54.292;18.598;2024-03-08T09:49:25;6.41;75.51
70271;SHT31;57680;54.292;18.598;2024-03-08T09:51:51;6.34;73.65
70271;SHT31;57680;54.292;18.598;2024-03-08T09:54:16;6.31;74.05
70271;SHT31;57680;54.292;18.598;2024-03-08T09:56:43;6.42;74.97
70271;SHT31;57680;54.292;18.598;2024-03-08T09:59:08;6.58;75.66
70271;SHT31;57680;54.292;18.598;2024-03-08T10:01:33;6.31;71.70
70271;SHT31;57680;54.292;18.598;2024-03-08T10:03:59;6.56;76.22
70271;SHT31;57680;54.292;18.598;2024-03-08T10:06:24;6.68;74.10
70271;SHT31;57680;54.292;18.598;2024-03-08T10:08:50;6.71;72.54
70271;SHT31;57680;54.292;18.598;2024-03-08T10:11:15;6.86;72.61
70271;SHT31;57680;54.292;18.598;2024-03-08T10:13:41;6.91;71.65
70271;SHT31;57680;54.292;18.598;2024-03-08T10:16:06;7.07;71.72
70271;SHT31;57680;54.292;18.598;2024-03-08T10:18:32;7.06;70.48
70271;SHT31;57680;54.292;18.598;2024-03-08T10:21:09;7.10;71.96
70271;SHT31;57680;54.292;18.598;2024-03-08T10:23:34;7.19;70.24
70271;SHT31;57680;54.292;18.598;2024-03-08T10:26:14;7.07;70.13
70271;SHT31;57680;54.292;18.598;2024-03-08T10:28:39;7.12;69.33
70271;SHT31;57680;54.292;18.598;2024-03-08T10:31:04;7.23;69.32
70271;SHT31;57680;54.292;18.598;2024-03-08T10:33:30;7.22;68.76
70271;SHT31;57680;54.292;18.598;2024-03-08T10:35:55;6.91;62.06
70271;SHT31;57680;54.292;18.598;2024-03-08T10:38:22;6.58;59.96
70271;SHT31;57680;54.292;18.598;2024-03-08T10:40:49;6.51;62.03
70271;SHT31;57680;54.292;18.598;2024-03-08T10:43:24;6.44;60.95
70271;SHT31;57680;54.292;18.598;2024-03-08T10:45:54;6.28;59.17
70271;SHT31;57680;54.292;18.598;2024-03-08T10:50:52;6.07;59.49
70271;SHT31;57680;54.292;18.598;2024-03-08T10:53:18;6.30;58.14
70271;SHT31;57680;54.292;18.598;2024-03-08T10:55:44;6.27;56.71
70271;SHT31;57680;54.292;18.598;2024-03-08T10:58:10;6.49;55.69
70271;SHT31;57680;54.292;18.598;2024-03-08T11:00:36;6.67;53.71
70271;SHT31;57680;54.292;18.598;2024-03-08T11:03:01;6.72;53.12
70271;SHT31;57680;54.292;18.598;2024-03-08T11:05:40;6.99;54.32
70271;SHT31;57680;54.292;18.598;2024-03-08T11:10:55;7.19;45.61
70271;SHT31;57680;54.292;18.598;2024-03-08T11:13:42;7.24;46.07
70271;SHT31;57680;54.292;18.598;2024-03-08T11:16:09;7.13;47.07
70271;SHT31;57680;54.292;18.598;2024-03-08T11:18:35;7.40;53.28
70271;SHT31;57680;54.292;18.598;2024-03-08T11:21:04;7.73;51.33
70271;SHT31;57680;54.292;18.598;2024-03-08T11:23:30;7.53;50.13
70271;SHT31;57680;54.292;18.598;2024-03-08T11:25:55;7.22;50.48
70271;SHT31;57680;54.292;18.598;2024-03-08T11:28:23;7.07;50.79
70271;SHT31;57680;54.292;18.598;2024-03-08T11:33:23;7.00;51.96
70271;SHT31;57680;54.292;18.598;2024-03-08T11:35:48;6.78;52.94
70271;SHT31;57680;54.292;18.598;2024-03-08T11:38:13;6.67;52.45
70271;SHT31;57680;54.292;18.598;2024-03-08T11:40:39;6.75;53.59
70271;SHT31;57680;54.292;18.598;2024-03-08T11:43:04;6.67;51.92
70271;SHT31;57680;54.292;18.598;2024-03-08T11:45:29;6.76;53.34
70271;SHT31;57680;54.292;18.598;2024-03-08T11:47:55;6.99;55.34
70271;SHT31;57680;54.292;18.598;2024-03-08T11:50:20;6.81;55.47
70271;SHT31;57680;54.292;18.598;2024-03-08T11:52:45;6.79;55.67
70271;SHT31;57680;54.292;18.598;2024-03-08T11:55:11;6.54;68.33
70271;SHT31;57680;54.292;18.598;2024-03-08T11:57:36;6.31;70.16
70271;SHT31;57680;54.292;18.598;2024-03-08T12:00:02;6.09;71.64
70271;SHT31;57680;54.292;18.598;2024-03-08T12:02:27;5.90;72.20
70271;SHT31;57680;54.292;18.598;2024-03-08T12:04:57;5.87;72.85
70271;SHT31;57680;54.292;18.598;2024-03-08T12:07:22;5.85;73.33
70271;SHT31;57680;54.292;18.598;2024-03-08T12:10:16;5.77;72.55
70271;SHT31;57680;54.292;18.598;2024-03-08T12:12:47;5.85;73.55
70271;SHT31;57680;54.292;18.598;2024-03-08T12:15:13;5.89;73.50
70271;SHT31;57680;54.292;18.598;2024-03-08T12:17:38;5.87;74.28
70271;SHT31;57680;54.292;18.598;2024-03-08T12:20:21;5.87;73.43
70271;SHT31;57680;54.292;18.598;2024-03-08T12:22:46;5.85;73.60
70271;SHT31;57680;54.292;18.598;2024-03-08T12:25:12;5.89;74.10
70271;SHT31;57680;54.292;18.598;2024-03-08T12:27:38;5.97;73.77
70271;SHT31;57680;54.292;18.598;2024-03-08T12:30:24;5.89;73.54
70271;SHT31;57680;54.292;18.598;2024-03-08T12:32:56;5.85;74.00
70271;SHT31;57680;54.292;18.598;2024-03-08T12:35:23;5.83;73.97
70271;SHT31;57680;54.292;18.598;2024-03-08T12:37:52;5.77;74.26
70271;SHT31;57680;54.292;18.598;2024-03-08T12:40:17;5.83;74.20
70271;SHT31;57680;54.292;18.598;2024-03-08T12:42:45;5.72;73.34
70271;SHT31;57680;54.292;18.598;2024-03-08T12:45:11;5.72;74.40
70271;SHT31;57680;54.292;18.598;2024-03-08T12:47:36;5.62;73.42
70271;SHT31;57680;54.292;18.598;2024-03-08T12:50:03;5.59;74.10
70271;SHT31;57680;54.292;18.598;2024-03-08T12:52:28;5.52;74.58
70271;SHT31;57680;54.292;18.598;2024-03-08T12:54:53;5.46;74.27
70271;SHT31;57680;54.292;18.598;2024-03-08T12:57:19;5.42;74.73
70271;SHT31;57680;54.292;18.598;2024-03-08T12:59:44;5.41;74.94
70271;SHT31;57680;54.292;18.598;2024-03-08T13:02:09;5.32;75.79
70271;SHT31;57680;54.292;18.598;2024-03-08T13:04:35;5.31;76.05
70271;SHT31;57680;54.292;18.598;2024-03-08T13:07:00;5.27;76.15
70271;SHT31;57680;54.292;18.598;2024-03-08T13:09:25;5.34;76.45
70271;SHT31;57680;54.292;18.598;2024-03-08T13:11:50;5.22;75.86
70271;SHT31;57680;54.292;18.598;2024-03-08T13:14:16;5.12;76.21
70271;SHT31;57680;54.292;18.598;2024-03-08T13:16:41;5.08;76.74
70271;SHT31;57680;54.292;18.598;2024-03-08T13:19:06;5.05;76.75
70271;SHT31;57680;54.292;18.598;2024-03-08T13:21:32;5.05;77.26
70271;SHT31;57680;54.292;18.598;2024-03-08T13:23:57;4.95;76.78
70271;SHT31;57680;54.292;18.598;2024-03-08T13:26:22;4.93;76.93
70271;SHT31;57680;54.292;18.598;2024-03-08T13:28:48;4.91;77.56
70271;SHT31;57680;54.292;18.598;2024-03-08T13:31:14;4.85;77.84
70271;SHT31;57680;54.292;18.598;2024-03-08T13:33:40;4.72;77.87
70271;SHT31;57680;54.292;18.598;2024-03-08T13:36:06;4.67;78.46
70271;SHT31;57680;54.292;18.598;2024-03-08T13:38:34;4.63;78.49
70271;SHT31;57680;54.292;18.598;2024-03-08T13:40:59;4.67;79.33
70271;SHT31;57680;54.292;18.598;2024-03-08T13:43:25;4.62;78.70
70271;SHT31;57680;54.292;18.598;2024-03-08T13:45:50;4.54;79.08
70271;SHT31;57680;54.292;18.598;2024-03-08T13:48:15;4.53;78.69
70271;SHT31;57680;54.292;18.598;2024-03-08T13:50:41;4.45;78.68
70271;SHT31;57680;54.292;18.598;2024-03-08T13:53:06;4.41;79.24
70271;SHT31;57680;54.292;18.598;2024-03-08T13:55:31;4.39;79.26
70271;SHT31;57680;54.292;18.598;2024-03-08T13:57:57;4.33;79.61
70271;SHT31;57680;54.292;18.598;2024-03-08T14:00:22;4.36;79.19
70271;SHT31;57680;54.292;18.598;2024-03-08T14:02:47;4.31;79.52
70271;SHT31;57680;54.292;18.598;2024-03-08T14:05:13;4.21;79.89
70271;SHT31;57680;54.292;18.598;2024-03-08T14:07:38;4.21;79.54
70271;SHT31;57680;54.292;18.598;2024-03-08T14:10:04;4.12;80.08
70271;SHT31;57680;54.292;18.598;2024-03-08T14:12:29;4.12;80.54
70271;SHT31;57680;54.292;18.598;2024-03-08T14:14:55;4.05;80.69
70271;SHT31;57680;54.292;18.598;2024-03-08T14:17:21;4.09;81.46
70271;SHT31;57680;54.292;18.598;2024-03-08T14:19:46;4.06;80.88
70271;SHT31;57680;54.292;18.598;2024-03-08T14:22:11;4.02;80.76
70271;SHT31;57680;54.292;18.598;2024-03-08T14:24:36;4.03;81.36
70271;SHT31;57680;54.292;18.598;2024-03-08T14:27:02;3.99;80.93
70271;SHT31;57680;54.292;18.598;2024-03-08T14:29:28;3.97;81.34
70271;SHT31;57680;54.292;18.598;2024-03-08T14:31:54;3.87;81.48
70271;SHT31;57680;54.292;18.598;2024-03-08T14:34:19;3.84;82.09
70271;SHT31;57680;54.292;18.598;2024-03-08T14:36:45;3.80;82.35
70271;SHT31;57680;54.292;18.598;2024-03-08T14:39:10;3.70;82.13
70271;SHT31;57680;54.292;18.598;2024-03-08T14:41:35;3.61;82.36
70271;SHT31;57680;54.292;18.598;2024-03-08T14:44:00;3.57;82.77
70271;SHT31;57680;54.292;18.598;2024-03-08T14:46:26;3.51;82.52
70271;SHT31;57680;54.292;18.598;2024-03-08T14:48:52;3.50;82.95
70271;SHT31;57680;54.292;18.598;2024-03-08T14:51:18;3.46;82.95
70271;SHT31;57680;54.292;18.598;2024-03-08T14:53:43;3.42;83.40
70271;SHT31;57680;54.292;18.598;2024-03-08T14:56:08;3.29;83.58
70271;SHT31;57680;54.292;18.598;2024-03-08T14:58:34;3.24;83.96
70271;SHT31;57680;54.292;18.598;2024-03-08T15:00:59;3.20;84.27
70271;SHT31;57680;54.292;18.598;2024-03-08T15:03:24;3.12;84.60
70271;SHT31;57680;54.292;18.598;2024-03-08T15:05:50;3.09;84.76
70271;SHT31;57680;54.292;18.598;2024-03-08T15:08:15;3.05;84.91
70271;SHT31;57680;54.292;18.598;2024-03-08T15:10:40;2.96;85.11
70271;SHT31;57680;54.292;18.598;2024-03-08T15:13:05;2.85;85.53
70271;SHT31;57680;54.292;18.598;2024-03-08T15:15:31;2.77;85.61
70271;SHT31;57680;54.292;18.598;2024-03-08T15:17:56;2.75;85.94
70271;SHT31;57680;54.292;18.598;2024-03-08T15:20:21;2.66;86.41
70271;SHT31;57680;54.292;18.598;2024-03-08T15:22:47;2.65;86.33
70271;SHT31;57680;54.292;18.598;2024-03-08T15:25:12;2.62;86.53